<?xml version="1.0" encoding="UTF-8" standalone="no" ?>
<gpx xmlns="http://www.topografix.com/GPX/1/1" xmlns:xsi="http://www.w3.org/2001/XMLSchema-instance" xsi:schemaLocation="http://www.topografix.com/GPX/1/1 http://www.topografix.com/GPX/1/1/gpx.xsd" version="1.1" creator="VisuGPX - https://www.visugpx.com">
  <metadata>
    <name>Col du Pourteillou - 2238 m</name>
    <desc><![CDATA[Sortie en ski de randonnée au Col du Pourteillou 2238 m avec le CAF de PAU]]></desc>
  </metadata>
  <wpt lat="42.77373" lon="-0.00719">
    <ele>1531.53</ele>
    <name><![CDATA[0000029]]></name>
    <type><![CDATA[Point de départ]]></type>
  </wpt>
  <wpt lat="42.77909" lon="0.00419">
    <ele>1489.53</ele>
    <name><![CDATA[0000030]]></name>
    <desc><![CDATA[<p><br /><h3>Nom: Segment: 1</h3><br />Heure de départ: 03/21/2018 09:33<br/>Heure d'arrivée: 03/21/2018 12:56<br/>Distance: 9km (03:22)<br/>Temps déplacement: 01:45<br/>Vitesse moyenne: 2,65 km/h<br/>Vitesse moyenne mouv.: 4,76 km/h<br/>Vitesse Max.: 27,6 km/h<br/>Altitude minimale: 1489 m<br/>Altitude maximale: 2255 m<br/>Vitesse de montée: 341,5 m/h<br/>Vitesse de descente: -596 m/h<br/>Gain d'altitude: 717 m<br/>Perte d'altitude: -759 m<br/>Temps de montée: 02:05<br/>Temps de descente: 01:16<br/></p>]]></desc>
    <type><![CDATA[Point d'arrivée]]></type>
  </wpt>
  <trk>
    <name><![CDATA[2018-03-21 09:33]]></name>
    <desc><![CDATA[<p>Heure de départ: 03/21/2018 09:33<br/>Heure d'arrivée: 03/21/2018 12:56<br/>Distance: 9 km (03:22)<br/>Temps déplacement: 01:45<br/>Vitesse moyenne: 2,65 km/h<br/>Vitesse moyenne mouv.: 5,08 km/h<br/>Vitesse Max.: 27,6 km/h<br/>Altitude minimale: 1489 m<br/>Altitude maximale: 2255 m<br/>Vitesse de montée: 333,6 m/h<br/>Vitesse de descente: -594,5 m/h<br/>Gain d'altitude: 704 m<br/>Perte d'altitude: -748 m<br/>Temps de montée: 02:06<br/>Temps de descente: 01:15<br/></p><hr align="center" width="480" style="height: 2px; width: 517px"/>]]></desc>
    <trkseg>
      <trkpt lat="42.77373" lon="-0.00719">
        <ele>1531.53</ele>
        <time>2018-03-21T08:33:31Z</time>
      </trkpt>
      <trkpt lat="42.77355" lon="-0.00714">
        <ele>1539.49</ele>
        <time>2018-03-21T08:35:33Z</time>
      </trkpt>
      <trkpt lat="42.77339" lon="-0.00701">
        <ele>1542.22</ele>
        <time>2018-03-21T08:35:59Z</time>
      </trkpt>
      <trkpt lat="42.77328" lon="-0.00722">
        <ele>1543.52</ele>
        <time>2018-03-21T08:36:24Z</time>
      </trkpt>
      <trkpt lat="42.77318" lon="-0.00742">
        <ele>1549.21</ele>
        <time>2018-03-21T08:36:49Z</time>
      </trkpt>
      <trkpt lat="42.77305" lon="-0.0076">
        <ele>1549.82</ele>
        <time>2018-03-21T08:37:15Z</time>
      </trkpt>
      <trkpt lat="42.77293" lon="-0.00778">
        <ele>1552.22</ele>
        <time>2018-03-21T08:37:37Z</time>
      </trkpt>
      <trkpt lat="42.77285" lon="-0.00801">
        <ele>1554.52</ele>
        <time>2018-03-21T08:37:56Z</time>
      </trkpt>
      <trkpt lat="42.7728" lon="-0.00825">
        <ele>1554.82</ele>
        <time>2018-03-21T08:38:16Z</time>
      </trkpt>
      <trkpt lat="42.77275" lon="-0.00849">
        <ele>1555.52</ele>
        <time>2018-03-21T08:38:38Z</time>
      </trkpt>
      <trkpt lat="42.77272" lon="-0.00875">
        <ele>1555.52</ele>
        <time>2018-03-21T08:39:02Z</time>
      </trkpt>
      <trkpt lat="42.77267" lon="-0.00899">
        <ele>1558.9</ele>
        <time>2018-03-21T08:39:25Z</time>
      </trkpt>
      <trkpt lat="42.77263" lon="-0.00923">
        <ele>1559.54</ele>
        <time>2018-03-21T08:39:52Z</time>
      </trkpt>
      <trkpt lat="42.77257" lon="-0.00947">
        <ele>1563.52</ele>
        <time>2018-03-21T08:40:16Z</time>
      </trkpt>
      <trkpt lat="42.77247" lon="-0.00969">
        <ele>1564.52</ele>
        <time>2018-03-21T08:40:39Z</time>
      </trkpt>
      <trkpt lat="42.77241" lon="-0.00993">
        <ele>1560.53</ele>
        <time>2018-03-21T08:41:02Z</time>
      </trkpt>
      <trkpt lat="42.7724" lon="-0.01018">
        <ele>1564.52</ele>
        <time>2018-03-21T08:41:28Z</time>
      </trkpt>
      <trkpt lat="42.77236" lon="-0.01043">
        <ele>1570.51</ele>
        <time>2018-03-21T08:41:51Z</time>
      </trkpt>
      <trkpt lat="42.77233" lon="-0.01067">
        <ele>1577.49</ele>
        <time>2018-03-21T08:42:16Z</time>
      </trkpt>
      <trkpt lat="42.77232" lon="-0.01092">
        <ele>1578.5</ele>
        <time>2018-03-21T08:42:36Z</time>
      </trkpt>
      <trkpt lat="42.77226" lon="-0.01116">
        <ele>1579.42</ele>
        <time>2018-03-21T08:43:00Z</time>
      </trkpt>
      <trkpt lat="42.77223" lon="-0.0114">
        <ele>1581.52</ele>
        <time>2018-03-21T08:43:24Z</time>
      </trkpt>
      <trkpt lat="42.77223" lon="-0.01165">
        <ele>1588.49</ele>
        <time>2018-03-21T08:43:48Z</time>
      </trkpt>
      <trkpt lat="42.77232" lon="-0.01187">
        <ele>1587.52</ele>
        <time>2018-03-21T08:44:11Z</time>
      </trkpt>
      <trkpt lat="42.7724" lon="-0.01209">
        <ele>1579.82</ele>
        <time>2018-03-21T08:44:33Z</time>
      </trkpt>
      <trkpt lat="42.7725" lon="-0.01232">
        <ele>1580.83</ele>
        <time>2018-03-21T08:44:55Z</time>
      </trkpt>
      <trkpt lat="42.77245" lon="-0.01255">
        <ele>1586.92</ele>
        <time>2018-03-21T08:45:22Z</time>
      </trkpt>
      <trkpt lat="42.77227" lon="-0.01249">
        <ele>1597.52</ele>
        <time>2018-03-21T08:46:08Z</time>
      </trkpt>
      <trkpt lat="42.77209" lon="-0.01247">
        <ele>1607.43</ele>
        <time>2018-03-21T08:47:10Z</time>
      </trkpt>
      <trkpt lat="42.77192" lon="-0.01256">
        <ele>1614.42</ele>
        <time>2018-03-21T08:48:05Z</time>
      </trkpt>
      <trkpt lat="42.77178" lon="-0.01272">
        <ele>1623.51</ele>
        <time>2018-03-21T08:50:15Z</time>
      </trkpt>
      <trkpt lat="42.77174" lon="-0.01297">
        <ele>1627.49</ele>
        <time>2018-03-21T08:50:44Z</time>
      </trkpt>
      <trkpt lat="42.77168" lon="-0.0132">
        <ele>1630.21</ele>
        <time>2018-03-21T08:51:12Z</time>
      </trkpt>
      <trkpt lat="42.77169" lon="-0.01345">
        <ele>1633.82</ele>
        <time>2018-03-21T08:51:43Z</time>
      </trkpt>
      <trkpt lat="42.77159" lon="-0.01365">
        <ele>1639.21</ele>
        <time>2018-03-21T08:52:11Z</time>
      </trkpt>
      <trkpt lat="42.77149" lon="-0.01386">
        <ele>1640.82</ele>
        <time>2018-03-21T08:52:39Z</time>
      </trkpt>
      <trkpt lat="42.77132" lon="-0.01375">
        <ele>1651.42</ele>
        <time>2018-03-21T08:53:21Z</time>
      </trkpt>
      <trkpt lat="42.77118" lon="-0.01359">
        <ele>1654.55</ele>
        <time>2018-03-21T08:53:50Z</time>
      </trkpt>
      <trkpt lat="42.77107" lon="-0.0134">
        <ele>1659.4</ele>
        <time>2018-03-21T08:54:21Z</time>
      </trkpt>
      <trkpt lat="42.77102" lon="-0.01316">
        <ele>1664.43</ele>
        <time>2018-03-21T08:54:54Z</time>
      </trkpt>
      <trkpt lat="42.77089" lon="-0.01299">
        <ele>1666.52</ele>
        <time>2018-03-21T08:55:27Z</time>
      </trkpt>
      <trkpt lat="42.77074" lon="-0.01283">
        <ele>1673.51</ele>
        <time>2018-03-21T08:56:21Z</time>
      </trkpt>
      <trkpt lat="42.77069" lon="-0.01259">
        <ele>1674.58</ele>
        <time>2018-03-21T08:57:02Z</time>
      </trkpt>
      <trkpt lat="42.77062" lon="-0.01236">
        <ele>1681.52</ele>
        <time>2018-03-21T08:57:34Z</time>
      </trkpt>
      <trkpt lat="42.77044" lon="-0.01241">
        <ele>1682.4</ele>
        <time>2018-03-21T08:58:18Z</time>
      </trkpt>
      <trkpt lat="42.77028" lon="-0.01255">
        <ele>1681.82</ele>
        <time>2018-03-21T08:58:44Z</time>
      </trkpt>
      <trkpt lat="42.7701" lon="-0.01248">
        <ele>1690.24</ele>
        <time>2018-03-21T08:59:23Z</time>
      </trkpt>
      <trkpt lat="42.76993" lon="-0.01246">
        <ele>1693.63</ele>
        <time>2018-03-21T08:59:59Z</time>
      </trkpt>
      <trkpt lat="42.76979" lon="-0.01262">
        <ele>1697.52</ele>
        <time>2018-03-21T09:00:34Z</time>
      </trkpt>
      <trkpt lat="42.76962" lon="-0.01273">
        <ele>1701.22</ele>
        <time>2018-03-21T09:01:03Z</time>
      </trkpt>
      <trkpt lat="42.76946" lon="-0.01286">
        <ele>1703.22</ele>
        <time>2018-03-21T09:04:31Z</time>
      </trkpt>
      <trkpt lat="42.76929" lon="-0.01295">
        <ele>1706.52</ele>
        <time>2018-03-21T09:04:56Z</time>
      </trkpt>
      <trkpt lat="42.76911" lon="-0.01298">
        <ele>1710.73</ele>
        <time>2018-03-21T09:05:25Z</time>
      </trkpt>
      <trkpt lat="42.76895" lon="-0.01311">
        <ele>1713.52</ele>
        <time>2018-03-21T09:05:53Z</time>
      </trkpt>
      <trkpt lat="42.76881" lon="-0.01327">
        <ele>1715.19</ele>
        <time>2018-03-21T09:06:16Z</time>
      </trkpt>
      <trkpt lat="42.76869" lon="-0.01345">
        <ele>1719.82</ele>
        <time>2018-03-21T09:06:42Z</time>
      </trkpt>
      <trkpt lat="42.76852" lon="-0.01354">
        <ele>1719.22</ele>
        <time>2018-03-21T09:07:15Z</time>
      </trkpt>
      <trkpt lat="42.76837" lon="-0.0137">
        <ele>1724.52</ele>
        <time>2018-03-21T09:07:46Z</time>
      </trkpt>
      <trkpt lat="42.76827" lon="-0.01391">
        <ele>1726.19</ele>
        <time>2018-03-21T09:08:17Z</time>
      </trkpt>
      <trkpt lat="42.76832" lon="-0.01414">
        <ele>1740.19</ele>
        <time>2018-03-21T09:08:55Z</time>
      </trkpt>
      <trkpt lat="42.76829" lon="-0.01439">
        <ele>1745.52</ele>
        <time>2018-03-21T09:09:24Z</time>
      </trkpt>
      <trkpt lat="42.76818" lon="-0.01459">
        <ele>1746.51</ele>
        <time>2018-03-21T09:09:57Z</time>
      </trkpt>
      <trkpt lat="42.76821" lon="-0.01484">
        <ele>1755.52</ele>
        <time>2018-03-21T09:10:37Z</time>
      </trkpt>
      <trkpt lat="42.76836" lon="-0.01498">
        <ele>1759.52</ele>
        <time>2018-03-21T09:11:07Z</time>
      </trkpt>
      <trkpt lat="42.76825" lon="-0.01517">
        <ele>1763.6</ele>
        <time>2018-03-21T09:11:32Z</time>
      </trkpt>
      <trkpt lat="42.76816" lon="-0.01539">
        <ele>1762.22</ele>
        <time>2018-03-21T09:11:57Z</time>
      </trkpt>
      <trkpt lat="42.76809" lon="-0.01563">
        <ele>1768.52</ele>
        <time>2018-03-21T09:12:26Z</time>
      </trkpt>
      <trkpt lat="42.76804" lon="-0.01587">
        <ele>1773.29</ele>
        <time>2018-03-21T09:13:02Z</time>
      </trkpt>
      <trkpt lat="42.768" lon="-0.01611">
        <ele>1780.22</ele>
        <time>2018-03-21T09:13:39Z</time>
      </trkpt>
      <trkpt lat="42.76793" lon="-0.01635">
        <ele>1782.52</ele>
        <time>2018-03-21T09:14:13Z</time>
      </trkpt>
      <trkpt lat="42.76784" lon="-0.01656">
        <ele>1783.62</ele>
        <time>2018-03-21T09:14:46Z</time>
      </trkpt>
      <trkpt lat="42.76781" lon="-0.01681">
        <ele>1792.22</ele>
        <time>2018-03-21T09:15:25Z</time>
      </trkpt>
      <trkpt lat="42.76772" lon="-0.01704">
        <ele>1794.52</ele>
        <time>2018-03-21T09:16:05Z</time>
      </trkpt>
      <trkpt lat="42.7677" lon="-0.0173">
        <ele>1802.61</ele>
        <time>2018-03-21T09:16:46Z</time>
      </trkpt>
      <trkpt lat="42.7677" lon="-0.01754">
        <ele>1808.23</ele>
        <time>2018-03-21T09:18:19Z</time>
      </trkpt>
      <trkpt lat="42.76766" lon="-0.01779">
        <ele>1812.52</ele>
        <time>2018-03-21T09:18:41Z</time>
      </trkpt>
      <trkpt lat="42.76753" lon="-0.01797">
        <ele>1810.84</ele>
        <time>2018-03-21T09:19:00Z</time>
      </trkpt>
      <trkpt lat="42.76747" lon="-0.01821">
        <ele>1815.49</ele>
        <time>2018-03-21T09:19:24Z</time>
      </trkpt>
      <trkpt lat="42.76739" lon="-0.01843">
        <ele>1817.52</ele>
        <time>2018-03-21T09:19:47Z</time>
      </trkpt>
      <trkpt lat="42.76726" lon="-0.0186">
        <ele>1814.82</ele>
        <time>2018-03-21T09:20:08Z</time>
      </trkpt>
      <trkpt lat="42.76713" lon="-0.01878">
        <ele>1815.52</ele>
        <time>2018-03-21T09:20:29Z</time>
      </trkpt>
      <trkpt lat="42.76699" lon="-0.01894">
        <ele>1817.25</ele>
        <time>2018-03-21T09:20:52Z</time>
      </trkpt>
      <trkpt lat="42.76687" lon="-0.01913">
        <ele>1819.49</ele>
        <time>2018-03-21T09:21:15Z</time>
      </trkpt>
      <trkpt lat="42.76675" lon="-0.01932">
        <ele>1821.49</ele>
        <time>2018-03-21T09:21:32Z</time>
      </trkpt>
      <trkpt lat="42.76657" lon="-0.0194">
        <ele>1827.5</ele>
        <time>2018-03-21T09:22:02Z</time>
      </trkpt>
      <trkpt lat="42.7665" lon="-0.01963">
        <ele>1836.49</ele>
        <time>2018-03-21T09:22:32Z</time>
      </trkpt>
      <trkpt lat="42.76648" lon="-0.01989">
        <ele>1851.22</ele>
        <time>2018-03-21T09:23:06Z</time>
      </trkpt>
      <trkpt lat="42.76636" lon="-0.02008">
        <ele>1858.19</ele>
        <time>2018-03-21T09:23:33Z</time>
      </trkpt>
      <trkpt lat="42.76619" lon="-0.02014">
        <ele>1860.22</ele>
        <time>2018-03-21T09:27:33Z</time>
      </trkpt>
      <trkpt lat="42.76601" lon="-0.02022">
        <ele>1861.52</ele>
        <time>2018-03-21T09:27:54Z</time>
      </trkpt>
      <trkpt lat="42.76588" lon="-0.02038">
        <ele>1860.62</ele>
        <time>2018-03-21T09:28:10Z</time>
      </trkpt>
      <trkpt lat="42.76573" lon="-0.02054">
        <ele>1862.59</ele>
        <time>2018-03-21T09:28:30Z</time>
      </trkpt>
      <trkpt lat="42.76559" lon="-0.02069">
        <ele>1860.52</ele>
        <time>2018-03-21T09:28:51Z</time>
      </trkpt>
      <trkpt lat="42.76547" lon="-0.02088">
        <ele>1865.21</ele>
        <time>2018-03-21T09:29:15Z</time>
      </trkpt>
      <trkpt lat="42.76534" lon="-0.02107">
        <ele>1866.43</ele>
        <time>2018-03-21T09:29:40Z</time>
      </trkpt>
      <trkpt lat="42.76524" lon="-0.02127">
        <ele>1864.52</ele>
        <time>2018-03-21T09:30:02Z</time>
      </trkpt>
      <trkpt lat="42.76511" lon="-0.02145">
        <ele>1861.51</ele>
        <time>2018-03-21T09:30:25Z</time>
      </trkpt>
      <trkpt lat="42.765" lon="-0.02165">
        <ele>1858.55</ele>
        <time>2018-03-21T09:30:48Z</time>
      </trkpt>
      <trkpt lat="42.76488" lon="-0.02185">
        <ele>1857.85</ele>
        <time>2018-03-21T09:31:11Z</time>
      </trkpt>
      <trkpt lat="42.76476" lon="-0.02203">
        <ele>1858.45</ele>
        <time>2018-03-21T09:31:35Z</time>
      </trkpt>
      <trkpt lat="42.76467" lon="-0.02225">
        <ele>1861.22</ele>
        <time>2018-03-21T09:31:58Z</time>
      </trkpt>
      <trkpt lat="42.76459" lon="-0.02248">
        <ele>1864.14</ele>
        <time>2018-03-21T09:32:23Z</time>
      </trkpt>
      <trkpt lat="42.76453" lon="-0.02272">
        <ele>1869.43</ele>
        <time>2018-03-21T09:32:46Z</time>
      </trkpt>
      <trkpt lat="42.7645" lon="-0.02296">
        <ele>1873.29</ele>
        <time>2018-03-21T09:33:06Z</time>
      </trkpt>
      <trkpt lat="42.76448" lon="-0.02321">
        <ele>1881.43</ele>
        <time>2018-03-21T09:33:27Z</time>
      </trkpt>
      <trkpt lat="42.76449" lon="-0.02346">
        <ele>1887.23</ele>
        <time>2018-03-21T09:33:50Z</time>
      </trkpt>
      <trkpt lat="42.76451" lon="-0.02371">
        <ele>1889.82</ele>
        <time>2018-03-21T09:34:11Z</time>
      </trkpt>
      <trkpt lat="42.7645" lon="-0.02395">
        <ele>1892.8</ele>
        <time>2018-03-21T09:34:31Z</time>
      </trkpt>
      <trkpt lat="42.76453" lon="-0.0242">
        <ele>1894.22</ele>
        <time>2018-03-21T09:34:52Z</time>
      </trkpt>
      <trkpt lat="42.76448" lon="-0.02445">
        <ele>1895.52</ele>
        <time>2018-03-21T09:35:13Z</time>
      </trkpt>
      <trkpt lat="42.76442" lon="-0.02467">
        <ele>1898.79</ele>
        <time>2018-03-21T09:35:30Z</time>
      </trkpt>
      <trkpt lat="42.76434" lon="-0.02492">
        <ele>1900.52</ele>
        <time>2018-03-21T09:35:55Z</time>
      </trkpt>
      <trkpt lat="42.76421" lon="-0.02509">
        <ele>1903.51</ele>
        <time>2018-03-21T09:36:14Z</time>
      </trkpt>
      <trkpt lat="42.76406" lon="-0.02525">
        <ele>1906.22</ele>
        <time>2018-03-21T09:36:35Z</time>
      </trkpt>
      <trkpt lat="42.76393" lon="-0.02542">
        <ele>1905.24</ele>
        <time>2018-03-21T09:37:52Z</time>
      </trkpt>
      <trkpt lat="42.76376" lon="-0.02552">
        <ele>1904.53</ele>
        <time>2018-03-21T09:38:13Z</time>
      </trkpt>
      <trkpt lat="42.76358" lon="-0.02558">
        <ele>1906.43</ele>
        <time>2018-03-21T09:38:37Z</time>
      </trkpt>
      <trkpt lat="42.7634" lon="-0.02563">
        <ele>1907.51</ele>
        <time>2018-03-21T09:38:57Z</time>
      </trkpt>
      <trkpt lat="42.76322" lon="-0.02567">
        <ele>1910.8</ele>
        <time>2018-03-21T09:39:41Z</time>
      </trkpt>
      <trkpt lat="42.76303" lon="-0.02565">
        <ele>1916.45</ele>
        <time>2018-03-21T09:40:58Z</time>
      </trkpt>
      <trkpt lat="42.76285" lon="-0.02566">
        <ele>1921.22</ele>
        <time>2018-03-21T09:41:27Z</time>
      </trkpt>
      <trkpt lat="42.76269" lon="-0.02554">
        <ele>1924.21</ele>
        <time>2018-03-21T09:42:04Z</time>
      </trkpt>
      <trkpt lat="42.76253" lon="-0.02542">
        <ele>1922.82</ele>
        <time>2018-03-21T09:42:42Z</time>
      </trkpt>
      <trkpt lat="42.76236" lon="-0.02531">
        <ele>1922.52</ele>
        <time>2018-03-21T09:43:20Z</time>
      </trkpt>
      <trkpt lat="42.76218" lon="-0.02526">
        <ele>1925.58</ele>
        <time>2018-03-21T09:43:53Z</time>
      </trkpt>
      <trkpt lat="42.76206" lon="-0.02545">
        <ele>1927.62</ele>
        <time>2018-03-21T09:44:26Z</time>
      </trkpt>
      <trkpt lat="42.76189" lon="-0.02554">
        <ele>1930.52</ele>
        <time>2018-03-21T09:45:09Z</time>
      </trkpt>
      <trkpt lat="42.76171" lon="-0.02542">
        <ele>1941.92</ele>
        <time>2018-03-21T09:45:50Z</time>
      </trkpt>
      <trkpt lat="42.76153" lon="-0.02535">
        <ele>1949.6</ele>
        <time>2018-03-21T09:46:25Z</time>
      </trkpt>
      <trkpt lat="42.76142" lon="-0.02556">
        <ele>1949.51</ele>
        <time>2018-03-21T09:47:04Z</time>
      </trkpt>
      <trkpt lat="42.76133" lon="-0.02578">
        <ele>1946.73</ele>
        <time>2018-03-21T09:47:43Z</time>
      </trkpt>
      <trkpt lat="42.76126" lon="-0.02602">
        <ele>1947.54</ele>
        <time>2018-03-21T09:48:22Z</time>
      </trkpt>
      <trkpt lat="42.76113" lon="-0.0262">
        <ele>1952.51</ele>
        <time>2018-03-21T09:48:56Z</time>
      </trkpt>
      <trkpt lat="42.76095" lon="-0.02623">
        <ele>1963.81</ele>
        <time>2018-03-21T09:49:31Z</time>
      </trkpt>
      <trkpt lat="42.76079" lon="-0.02635">
        <ele>1964.52</ele>
        <time>2018-03-21T09:50:03Z</time>
      </trkpt>
      <trkpt lat="42.76063" lon="-0.02647">
        <ele>1963.22</ele>
        <time>2018-03-21T09:50:31Z</time>
      </trkpt>
      <trkpt lat="42.76047" lon="-0.02659">
        <ele>1963.46</ele>
        <time>2018-03-21T09:50:59Z</time>
      </trkpt>
      <trkpt lat="42.76036" lon="-0.02679">
        <ele>1964.52</ele>
        <time>2018-03-21T09:51:36Z</time>
      </trkpt>
      <trkpt lat="42.76027" lon="-0.02701">
        <ele>1968.43</ele>
        <time>2018-03-21T09:52:14Z</time>
      </trkpt>
      <trkpt lat="42.76021" lon="-0.02724">
        <ele>1975.51</ele>
        <time>2018-03-21T09:52:50Z</time>
      </trkpt>
      <trkpt lat="42.76016" lon="-0.02749">
        <ele>1979.44</ele>
        <time>2018-03-21T09:53:31Z</time>
      </trkpt>
      <trkpt lat="42.76011" lon="-0.02773">
        <ele>1982.49</ele>
        <time>2018-03-21T09:54:07Z</time>
      </trkpt>
      <trkpt lat="42.76007" lon="-0.02798">
        <ele>1985.52</ele>
        <time>2018-03-21T09:54:36Z</time>
      </trkpt>
      <trkpt lat="42.75999" lon="-0.0282">
        <ele>1991.43</ele>
        <time>2018-03-21T09:55:07Z</time>
      </trkpt>
      <trkpt lat="42.75992" lon="-0.02844">
        <ele>1997.4</ele>
        <time>2018-03-21T09:55:34Z</time>
      </trkpt>
      <trkpt lat="42.75989" lon="-0.02869">
        <ele>1996.52</ele>
        <time>2018-03-21T09:55:53Z</time>
      </trkpt>
      <trkpt lat="42.7599" lon="-0.02893">
        <ele>1999.43</ele>
        <time>2018-03-21T09:56:20Z</time>
      </trkpt>
      <trkpt lat="42.75996" lon="-0.02917">
        <ele>2003.49</ele>
        <time>2018-03-21T09:56:48Z</time>
      </trkpt>
      <trkpt lat="42.75995" lon="-0.02942">
        <ele>2005.52</ele>
        <time>2018-03-21T09:57:10Z</time>
      </trkpt>
      <trkpt lat="42.75996" lon="-0.02967">
        <ele>2007.73</ele>
        <time>2018-03-21T09:57:44Z</time>
      </trkpt>
      <trkpt lat="42.75993" lon="-0.02992">
        <ele>2007.82</ele>
        <time>2018-03-21T09:58:19Z</time>
      </trkpt>
      <trkpt lat="42.75984" lon="-0.03015">
        <ele>2014.43</ele>
        <time>2018-03-21T09:59:06Z</time>
      </trkpt>
      <trkpt lat="42.75972" lon="-0.03034">
        <ele>2012.76</ele>
        <time>2018-03-21T09:59:28Z</time>
      </trkpt>
      <trkpt lat="42.75963" lon="-0.03055">
        <ele>2019.32</ele>
        <time>2018-03-21T10:00:00Z</time>
      </trkpt>
      <trkpt lat="42.75958" lon="-0.0308">
        <ele>2019.55</ele>
        <time>2018-03-21T10:00:29Z</time>
      </trkpt>
      <trkpt lat="42.75967" lon="-0.03101">
        <ele>2025.52</ele>
        <time>2018-03-21T10:00:54Z</time>
      </trkpt>
      <trkpt lat="42.75972" lon="-0.03125">
        <ele>2024.32</ele>
        <time>2018-03-21T10:01:16Z</time>
      </trkpt>
      <trkpt lat="42.75966" lon="-0.03148">
        <ele>2027.61</ele>
        <time>2018-03-21T10:01:43Z</time>
      </trkpt>
      <trkpt lat="42.75959" lon="-0.03172">
        <ele>2022.55</ele>
        <time>2018-03-21T10:02:06Z</time>
      </trkpt>
      <trkpt lat="42.75951" lon="-0.03195">
        <ele>2025.52</ele>
        <time>2018-03-21T10:02:50Z</time>
      </trkpt>
      <trkpt lat="42.75933" lon="-0.03198">
        <ele>2041.22</ele>
        <time>2018-03-21T10:03:29Z</time>
      </trkpt>
      <trkpt lat="42.75918" lon="-0.03214">
        <ele>2047.43</ele>
        <time>2018-03-21T10:04:45Z</time>
      </trkpt>
      <trkpt lat="42.7591" lon="-0.03238">
        <ele>2056.22</ele>
        <time>2018-03-21T10:05:22Z</time>
      </trkpt>
      <trkpt lat="42.75915" lon="-0.03262">
        <ele>2063.43</ele>
        <time>2018-03-21T10:06:00Z</time>
      </trkpt>
      <trkpt lat="42.75914" lon="-0.03287">
        <ele>2072.52</ele>
        <time>2018-03-21T10:06:45Z</time>
      </trkpt>
      <trkpt lat="42.75899" lon="-0.03303">
        <ele>2076.51</ele>
        <time>2018-03-21T10:07:15Z</time>
      </trkpt>
      <trkpt lat="42.75896" lon="-0.03327">
        <ele>2082.22</ele>
        <time>2018-03-21T10:11:16Z</time>
      </trkpt>
      <trkpt lat="42.75898" lon="-0.03351">
        <ele>2085.22</ele>
        <time>2018-03-21T10:11:42Z</time>
      </trkpt>
      <trkpt lat="42.75888" lon="-0.03374">
        <ele>2089.52</ele>
        <time>2018-03-21T10:13:21Z</time>
      </trkpt>
      <trkpt lat="42.75884" lon="-0.03397">
        <ele>2093.61</ele>
        <time>2018-03-21T10:14:16Z</time>
      </trkpt>
      <trkpt lat="42.75871" lon="-0.03416">
        <ele>2104.5</ele>
        <time>2018-03-21T10:15:16Z</time>
      </trkpt>
      <trkpt lat="42.75867" lon="-0.0344">
        <ele>2114.22</ele>
        <time>2018-03-21T10:16:21Z</time>
      </trkpt>
      <trkpt lat="42.75849" lon="-0.03433">
        <ele>2119.43</ele>
        <time>2018-03-21T10:16:49Z</time>
      </trkpt>
      <trkpt lat="42.75832" lon="-0.03428">
        <ele>2123.42</ele>
        <time>2018-03-21T10:17:33Z</time>
      </trkpt>
      <trkpt lat="42.75814" lon="-0.03435">
        <ele>2130.43</ele>
        <time>2018-03-21T10:18:22Z</time>
      </trkpt>
      <trkpt lat="42.75795" lon="-0.03439">
        <ele>2136.52</ele>
        <time>2018-03-21T10:19:20Z</time>
      </trkpt>
      <trkpt lat="42.75791" lon="-0.03463">
        <ele>2137.82</ele>
        <time>2018-03-21T10:20:09Z</time>
      </trkpt>
      <trkpt lat="42.75774" lon="-0.03456">
        <ele>2141.61</ele>
        <time>2018-03-21T10:21:15Z</time>
      </trkpt>
      <trkpt lat="42.7576" lon="-0.03471">
        <ele>2145.55</ele>
        <time>2018-03-21T10:21:56Z</time>
      </trkpt>
      <trkpt lat="42.75745" lon="-0.03486">
        <ele>2145.52</ele>
        <time>2018-03-21T10:22:48Z</time>
      </trkpt>
      <trkpt lat="42.75734" lon="-0.03505">
        <ele>2160.52</ele>
        <time>2018-03-21T10:23:36Z</time>
      </trkpt>
      <trkpt lat="42.75726" lon="-0.03529">
        <ele>2160.49</ele>
        <time>2018-03-21T10:24:46Z</time>
      </trkpt>
      <trkpt lat="42.75721" lon="-0.03553">
        <ele>2167.43</ele>
        <time>2018-03-21T10:25:09Z</time>
      </trkpt>
      <trkpt lat="42.75717" lon="-0.03578">
        <ele>2173.22</ele>
        <time>2018-03-21T10:28:19Z</time>
      </trkpt>
      <trkpt lat="42.75716" lon="-0.03604">
        <ele>2173.79</ele>
        <time>2018-03-21T10:28:41Z</time>
      </trkpt>
      <trkpt lat="42.75721" lon="-0.03629">
        <ele>2177.22</ele>
        <time>2018-03-21T10:29:25Z</time>
      </trkpt>
      <trkpt lat="42.75709" lon="-0.03648">
        <ele>2178.22</ele>
        <time>2018-03-21T10:33:04Z</time>
      </trkpt>
      <trkpt lat="42.75702" lon="-0.0367">
        <ele>2198.49</ele>
        <time>2018-03-21T10:34:23Z</time>
      </trkpt>
      <trkpt lat="42.75701" lon="-0.03696">
        <ele>2213.41</ele>
        <time>2018-03-21T10:37:04Z</time>
      </trkpt>
      <trkpt lat="42.75707" lon="-0.0372">
        <ele>2222.52</ele>
        <time>2018-03-21T10:38:34Z</time>
      </trkpt>
      <trkpt lat="42.75688" lon="-0.03719">
        <ele>2235.12</ele>
        <time>2018-03-21T10:39:33Z</time>
      </trkpt>
      <trkpt lat="42.7567" lon="-0.03721">
        <ele>2237.43</ele>
        <time>2018-03-21T10:40:52Z</time>
      </trkpt>
      <trkpt lat="42.75659" lon="-0.03741">
        <ele>2239.49</ele>
        <time>2018-03-21T10:41:29Z</time>
      </trkpt>
      <trkpt lat="42.75664" lon="-0.03717">
        <ele>2255.79</ele>
        <time>2018-03-21T10:45:47Z</time>
      </trkpt>
      <trkpt lat="42.75669" lon="-0.03693">
        <ele>2245.53</ele>
        <time>2018-03-21T11:01:31Z</time>
      </trkpt>
      <trkpt lat="42.75688" lon="-0.03698">
        <ele>2235.62</ele>
        <time>2018-03-21T11:02:02Z</time>
      </trkpt>
      <trkpt lat="42.75697" lon="-0.0367">
        <ele>2216.61</ele>
        <time>2018-03-21T11:02:45Z</time>
      </trkpt>
      <trkpt lat="42.7569" lon="-0.03643">
        <ele>2211.96</ele>
        <time>2018-03-21T11:02:49Z</time>
      </trkpt>
      <trkpt lat="42.75683" lon="-0.03619">
        <ele>2204.69</ele>
        <time>2018-03-21T11:02:54Z</time>
      </trkpt>
      <trkpt lat="42.75687" lon="-0.0359">
        <ele>2192.34</ele>
        <time>2018-03-21T11:03:22Z</time>
      </trkpt>
      <trkpt lat="42.75696" lon="-0.03563">
        <ele>2185.34</ele>
        <time>2018-03-21T11:03:27Z</time>
      </trkpt>
      <trkpt lat="42.75709" lon="-0.03542">
        <ele>2177.98</ele>
        <time>2018-03-21T11:03:32Z</time>
      </trkpt>
      <trkpt lat="42.75715" lon="-0.0352">
        <ele>2163.53</ele>
        <time>2018-03-21T11:04:48Z</time>
      </trkpt>
      <trkpt lat="42.75728" lon="-0.035">
        <ele>2160.85</ele>
        <time>2018-03-21T11:05:38Z</time>
      </trkpt>
      <trkpt lat="42.75734" lon="-0.03476">
        <ele>2156.01</ele>
        <time>2018-03-21T11:05:44Z</time>
      </trkpt>
      <trkpt lat="42.75747" lon="-0.03456">
        <ele>2153.55</ele>
        <time>2018-03-21T11:05:50Z</time>
      </trkpt>
      <trkpt lat="42.75764" lon="-0.03442">
        <ele>2149.95</ele>
        <time>2018-03-21T11:05:54Z</time>
      </trkpt>
      <trkpt lat="42.75781" lon="-0.03446">
        <ele>2148.85</ele>
        <time>2018-03-21T11:07:40Z</time>
      </trkpt>
      <trkpt lat="42.75796" lon="-0.03425">
        <ele>2143.96</ele>
        <time>2018-03-21T11:07:45Z</time>
      </trkpt>
      <trkpt lat="42.75814" lon="-0.03422">
        <ele>2140.94</ele>
        <time>2018-03-21T11:07:49Z</time>
      </trkpt>
      <trkpt lat="42.75832" lon="-0.03425">
        <ele>2130.64</ele>
        <time>2018-03-21T11:08:02Z</time>
      </trkpt>
      <trkpt lat="42.75842" lon="-0.03399">
        <ele>2123.16</ele>
        <time>2018-03-21T11:08:10Z</time>
      </trkpt>
      <trkpt lat="42.75858" lon="-0.03383">
        <ele>2113.04</ele>
        <time>2018-03-21T11:08:18Z</time>
      </trkpt>
      <trkpt lat="42.75862" lon="-0.03354">
        <ele>2103.68</ele>
        <time>2018-03-21T11:08:22Z</time>
      </trkpt>
      <trkpt lat="42.75863" lon="-0.03329">
        <ele>2095.28</ele>
        <time>2018-03-21T11:08:26Z</time>
      </trkpt>
      <trkpt lat="42.75874" lon="-0.03309">
        <ele>2086.64</ele>
        <time>2018-03-21T11:08:59Z</time>
      </trkpt>
      <trkpt lat="42.75891" lon="-0.033">
        <ele>2082.24</ele>
        <time>2018-03-21T11:09:04Z</time>
      </trkpt>
      <trkpt lat="42.75913" lon="-0.03294">
        <ele>2075.06</ele>
        <time>2018-03-21T11:09:08Z</time>
      </trkpt>
      <trkpt lat="42.75934" lon="-0.03284">
        <ele>2069.98</ele>
        <time>2018-03-21T11:09:12Z</time>
      </trkpt>
      <trkpt lat="42.7593" lon="-0.03258">
        <ele>2063.56</ele>
        <time>2018-03-21T11:12:01Z</time>
      </trkpt>
      <trkpt lat="42.75915" lon="-0.03242">
        <ele>2060.92</ele>
        <time>2018-03-21T11:12:08Z</time>
      </trkpt>
      <trkpt lat="42.75915" lon="-0.03215">
        <ele>2058.64</ele>
        <time>2018-03-21T11:12:14Z</time>
      </trkpt>
      <trkpt lat="42.75921" lon="-0.03185">
        <ele>2053.95</ele>
        <time>2018-03-21T11:12:20Z</time>
      </trkpt>
      <trkpt lat="42.75926" lon="-0.03157">
        <ele>2050.86</ele>
        <time>2018-03-21T11:12:25Z</time>
      </trkpt>
      <trkpt lat="42.75937" lon="-0.03128">
        <ele>2048.92</ele>
        <time>2018-03-21T11:12:28Z</time>
      </trkpt>
      <trkpt lat="42.7595" lon="-0.03103">
        <ele>2046.16</ele>
        <time>2018-03-21T11:12:31Z</time>
      </trkpt>
      <trkpt lat="42.75959" lon="-0.0308">
        <ele>2037.85</ele>
        <time>2018-03-21T11:14:03Z</time>
      </trkpt>
      <trkpt lat="42.75964" lon="-0.03055">
        <ele>2033.55</ele>
        <time>2018-03-21T11:14:19Z</time>
      </trkpt>
      <trkpt lat="42.75974" lon="-0.03031">
        <ele>2030.16</ele>
        <time>2018-03-21T11:14:23Z</time>
      </trkpt>
      <trkpt lat="42.75986" lon="-0.03013">
        <ele>2028.61</ele>
        <time>2018-03-21T11:14:28Z</time>
      </trkpt>
      <trkpt lat="42.75993" lon="-0.02987">
        <ele>2024.27</ele>
        <time>2018-03-21T11:14:32Z</time>
      </trkpt>
      <trkpt lat="42.75996" lon="-0.02957">
        <ele>2020.05</ele>
        <time>2018-03-21T11:14:35Z</time>
      </trkpt>
      <trkpt lat="42.75998" lon="-0.02924">
        <ele>2017.65</ele>
        <time>2018-03-21T11:14:38Z</time>
      </trkpt>
      <trkpt lat="42.76001" lon="-0.02893">
        <ele>2016.82</ele>
        <time>2018-03-21T11:14:42Z</time>
      </trkpt>
      <trkpt lat="42.76004" lon="-0.02867">
        <ele>2009.94</ele>
        <time>2018-03-21T11:17:06Z</time>
      </trkpt>
      <trkpt lat="42.76006" lon="-0.02843">
        <ele>2006.61</ele>
        <time>2018-03-21T11:17:14Z</time>
      </trkpt>
      <trkpt lat="42.76022" lon="-0.02833">
        <ele>2004.52</ele>
        <time>2018-03-21T11:18:04Z</time>
      </trkpt>
      <trkpt lat="42.76043" lon="-0.02834">
        <ele>2000.86</ele>
        <time>2018-03-21T11:18:10Z</time>
      </trkpt>
      <trkpt lat="42.76061" lon="-0.02835">
        <ele>1997.61</ele>
        <time>2018-03-21T11:18:55Z</time>
      </trkpt>
      <trkpt lat="42.76082" lon="-0.02836">
        <ele>1993.94</ele>
        <time>2018-03-21T11:19:02Z</time>
      </trkpt>
      <trkpt lat="42.761" lon="-0.02836">
        <ele>1991.62</ele>
        <time>2018-03-21T11:19:07Z</time>
      </trkpt>
      <trkpt lat="42.76119" lon="-0.02842">
        <ele>1988.62</ele>
        <time>2018-03-21T11:19:16Z</time>
      </trkpt>
      <trkpt lat="42.76137" lon="-0.02836">
        <ele>1984.94</ele>
        <time>2018-03-21T11:19:55Z</time>
      </trkpt>
      <trkpt lat="42.76146" lon="-0.02809">
        <ele>1980.92</ele>
        <time>2018-03-21T11:20:00Z</time>
      </trkpt>
      <trkpt lat="42.76161" lon="-0.0279">
        <ele>1976.25</ele>
        <time>2018-03-21T11:20:04Z</time>
      </trkpt>
      <trkpt lat="42.76179" lon="-0.02778">
        <ele>1969.31</ele>
        <time>2018-03-21T11:20:08Z</time>
      </trkpt>
      <trkpt lat="42.76193" lon="-0.02757">
        <ele>1963.26</ele>
        <time>2018-03-21T11:20:12Z</time>
      </trkpt>
      <trkpt lat="42.76209" lon="-0.02741">
        <ele>1956.35</ele>
        <time>2018-03-21T11:20:16Z</time>
      </trkpt>
      <trkpt lat="42.76227" lon="-0.02725">
        <ele>1949.08</ele>
        <time>2018-03-21T11:20:20Z</time>
      </trkpt>
      <trkpt lat="42.76247" lon="-0.02712">
        <ele>1943.26</ele>
        <time>2018-03-21T11:20:24Z</time>
      </trkpt>
      <trkpt lat="42.76265" lon="-0.02698">
        <ele>1937.28</ele>
        <time>2018-03-21T11:20:28Z</time>
      </trkpt>
      <trkpt lat="42.76282" lon="-0.02678">
        <ele>1927.48</ele>
        <time>2018-03-21T11:20:32Z</time>
      </trkpt>
      <trkpt lat="42.76304" lon="-0.02664">
        <ele>1918.39</ele>
        <time>2018-03-21T11:20:36Z</time>
      </trkpt>
      <trkpt lat="42.76323" lon="-0.02652">
        <ele>1913.29</ele>
        <time>2018-03-21T11:20:39Z</time>
      </trkpt>
      <trkpt lat="42.76343" lon="-0.02638">
        <ele>1909.96</ele>
        <time>2018-03-21T11:20:42Z</time>
      </trkpt>
      <trkpt lat="42.76362" lon="-0.02626">
        <ele>1907.01</ele>
        <time>2018-03-21T11:20:45Z</time>
      </trkpt>
      <trkpt lat="42.76379" lon="-0.02613">
        <ele>1901.26</ele>
        <time>2018-03-21T11:20:49Z</time>
      </trkpt>
      <trkpt lat="42.76395" lon="-0.02591">
        <ele>1896.95</ele>
        <time>2018-03-21T11:20:53Z</time>
      </trkpt>
      <trkpt lat="42.76412" lon="-0.02579">
        <ele>1892.98</ele>
        <time>2018-03-21T11:20:56Z</time>
      </trkpt>
      <trkpt lat="42.76436" lon="-0.02577">
        <ele>1890.92</ele>
        <time>2018-03-21T11:21:00Z</time>
      </trkpt>
      <trkpt lat="42.76453" lon="-0.02564">
        <ele>1880.62</ele>
        <time>2018-03-21T11:21:26Z</time>
      </trkpt>
      <trkpt lat="42.7647" lon="-0.02549">
        <ele>1876.94</ele>
        <time>2018-03-21T11:21:32Z</time>
      </trkpt>
      <trkpt lat="42.76489" lon="-0.02542">
        <ele>1873.62</ele>
        <time>2018-03-21T11:21:38Z</time>
      </trkpt>
      <trkpt lat="42.76506" lon="-0.02528">
        <ele>1869.82</ele>
        <time>2018-03-21T11:22:09Z</time>
      </trkpt>
      <trkpt lat="42.76524" lon="-0.02513">
        <ele>1866.62</ele>
        <time>2018-03-21T11:22:16Z</time>
      </trkpt>
      <trkpt lat="42.76543" lon="-0.02524">
        <ele>1864.8</ele>
        <time>2018-03-21T11:23:00Z</time>
      </trkpt>
      <trkpt lat="42.76559" lon="-0.02537">
        <ele>1863.53</ele>
        <time>2018-03-21T11:23:04Z</time>
      </trkpt>
      <trkpt lat="42.76579" lon="-0.02536">
        <ele>1860.55</ele>
        <time>2018-03-21T11:23:10Z</time>
      </trkpt>
      <trkpt lat="42.76597" lon="-0.02525">
        <ele>1857.86</ele>
        <time>2018-03-21T11:23:16Z</time>
      </trkpt>
      <trkpt lat="42.76617" lon="-0.02516">
        <ele>1853.95</ele>
        <time>2018-03-21T11:23:21Z</time>
      </trkpt>
      <trkpt lat="42.76634" lon="-0.02499">
        <ele>1850.65</ele>
        <time>2018-03-21T11:23:26Z</time>
      </trkpt>
      <trkpt lat="42.76643" lon="-0.02476">
        <ele>1848.55</ele>
        <time>2018-03-21T11:23:31Z</time>
      </trkpt>
      <trkpt lat="42.76643" lon="-0.02451">
        <ele>1845.82</ele>
        <time>2018-03-21T11:23:44Z</time>
      </trkpt>
      <trkpt lat="42.76641" lon="-0.02423">
        <ele>1842.62</ele>
        <time>2018-03-21T11:25:10Z</time>
      </trkpt>
      <trkpt lat="42.76643" lon="-0.0239">
        <ele>1837.05</ele>
        <time>2018-03-21T11:25:14Z</time>
      </trkpt>
      <trkpt lat="42.76649" lon="-0.02358">
        <ele>1835.56</ele>
        <time>2018-03-21T11:25:17Z</time>
      </trkpt>
      <trkpt lat="42.76658" lon="-0.02334">
        <ele>1834.61</ele>
        <time>2018-03-21T11:25:20Z</time>
      </trkpt>
      <trkpt lat="42.76669" lon="-0.02309">
        <ele>1832.64</ele>
        <time>2018-03-21T11:25:24Z</time>
      </trkpt>
      <trkpt lat="42.76679" lon="-0.02287">
        <ele>1830.53</ele>
        <time>2018-03-21T11:25:30Z</time>
      </trkpt>
      <trkpt lat="42.76689" lon="-0.02265">
        <ele>1824.62</ele>
        <time>2018-03-21T11:26:31Z</time>
      </trkpt>
      <trkpt lat="42.767" lon="-0.02241">
        <ele>1822.52</ele>
        <time>2018-03-21T11:26:40Z</time>
      </trkpt>
      <trkpt lat="42.76709" lon="-0.0222">
        <ele>1821.53</ele>
        <time>2018-03-21T11:26:44Z</time>
      </trkpt>
      <trkpt lat="42.76718" lon="-0.02196">
        <ele>1821.52</ele>
        <time>2018-03-21T11:26:48Z</time>
      </trkpt>
      <trkpt lat="42.76728" lon="-0.02174">
        <ele>1819.61</ele>
        <time>2018-03-21T11:26:53Z</time>
      </trkpt>
      <trkpt lat="42.7675" lon="-0.02168">
        <ele>1816.91</ele>
        <time>2018-03-21T11:27:00Z</time>
      </trkpt>
      <trkpt lat="42.76768" lon="-0.02174">
        <ele>1813.61</ele>
        <time>2018-03-21T11:27:07Z</time>
      </trkpt>
      <trkpt lat="42.76764" lon="-0.0215">
        <ele>1810.52</ele>
        <time>2018-03-21T11:29:28Z</time>
      </trkpt>
      <trkpt lat="42.76768" lon="-0.02126">
        <ele>1809.52</ele>
        <time>2018-03-21T11:29:37Z</time>
      </trkpt>
      <trkpt lat="42.76768" lon="-0.02097">
        <ele>1807.83</ele>
        <time>2018-03-21T11:29:44Z</time>
      </trkpt>
      <trkpt lat="42.76772" lon="-0.0207">
        <ele>1804.64</ele>
        <time>2018-03-21T11:29:49Z</time>
      </trkpt>
      <trkpt lat="42.76783" lon="-0.02043">
        <ele>1801.85</ele>
        <time>2018-03-21T11:29:54Z</time>
      </trkpt>
      <trkpt lat="42.76794" lon="-0.02021">
        <ele>1799.91</ele>
        <time>2018-03-21T11:29:59Z</time>
      </trkpt>
      <trkpt lat="42.76806" lon="-0.01998">
        <ele>1798.53</ele>
        <time>2018-03-21T11:30:05Z</time>
      </trkpt>
      <trkpt lat="42.76817" lon="-0.01976">
        <ele>1795.83</ele>
        <time>2018-03-21T11:30:11Z</time>
      </trkpt>
      <trkpt lat="42.76822" lon="-0.01951">
        <ele>1794.61</ele>
        <time>2018-03-21T11:30:19Z</time>
      </trkpt>
      <trkpt lat="42.76819" lon="-0.01926">
        <ele>1792.55</ele>
        <time>2018-03-21T11:31:19Z</time>
      </trkpt>
      <trkpt lat="42.76815" lon="-0.01901">
        <ele>1791.55</ele>
        <time>2018-03-21T11:31:28Z</time>
      </trkpt>
      <trkpt lat="42.7682" lon="-0.01874">
        <ele>1789.53</ele>
        <time>2018-03-21T11:31:36Z</time>
      </trkpt>
      <trkpt lat="42.76823" lon="-0.01849">
        <ele>1787.61</ele>
        <time>2018-03-21T11:31:42Z</time>
      </trkpt>
      <trkpt lat="42.76827" lon="-0.01823">
        <ele>1785.61</ele>
        <time>2018-03-21T11:31:48Z</time>
      </trkpt>
      <trkpt lat="42.76831" lon="-0.01797">
        <ele>1784.55</ele>
        <time>2018-03-21T11:31:56Z</time>
      </trkpt>
      <trkpt lat="42.76834" lon="-0.01771">
        <ele>1781.92</ele>
        <time>2018-03-21T11:32:03Z</time>
      </trkpt>
      <trkpt lat="42.76837" lon="-0.01743">
        <ele>1779.56</ele>
        <time>2018-03-21T11:32:08Z</time>
      </trkpt>
      <trkpt lat="42.76838" lon="-0.01716">
        <ele>1778.61</ele>
        <time>2018-03-21T11:32:12Z</time>
      </trkpt>
      <trkpt lat="42.76844" lon="-0.01687">
        <ele>1776.85</ele>
        <time>2018-03-21T11:32:17Z</time>
      </trkpt>
      <trkpt lat="42.76847" lon="-0.01662">
        <ele>1775.53</ele>
        <time>2018-03-21T11:32:22Z</time>
      </trkpt>
      <trkpt lat="42.76852" lon="-0.01636">
        <ele>1773.82</ele>
        <time>2018-03-21T11:32:30Z</time>
      </trkpt>
      <trkpt lat="42.76866" lon="-0.01612">
        <ele>1768.92</ele>
        <time>2018-03-21T11:33:51Z</time>
      </trkpt>
      <trkpt lat="42.76877" lon="-0.01591">
        <ele>1767.52</ele>
        <time>2018-03-21T11:34:00Z</time>
      </trkpt>
      <trkpt lat="42.76888" lon="-0.01572">
        <ele>1765.55</ele>
        <time>2018-03-21T11:34:09Z</time>
      </trkpt>
      <trkpt lat="42.76897" lon="-0.01547">
        <ele>1762.85</ele>
        <time>2018-03-21T11:34:15Z</time>
      </trkpt>
      <trkpt lat="42.76902" lon="-0.01522">
        <ele>1759.86</ele>
        <time>2018-03-21T11:34:19Z</time>
      </trkpt>
      <trkpt lat="42.76909" lon="-0.01496">
        <ele>1756.86</ele>
        <time>2018-03-21T11:34:23Z</time>
      </trkpt>
      <trkpt lat="42.76926" lon="-0.01485">
        <ele>1752.56</ele>
        <time>2018-03-21T11:34:29Z</time>
      </trkpt>
      <trkpt lat="42.76928" lon="-0.0146">
        <ele>1749.91</ele>
        <time>2018-03-21T11:34:35Z</time>
      </trkpt>
      <trkpt lat="42.76941" lon="-0.0144">
        <ele>1745.62</ele>
        <time>2018-03-21T11:34:45Z</time>
      </trkpt>
      <trkpt lat="42.76935" lon="-0.01415">
        <ele>1743.82</ele>
        <time>2018-03-21T11:34:52Z</time>
      </trkpt>
      <trkpt lat="42.76948" lon="-0.01394">
        <ele>1737.93</ele>
        <time>2018-03-21T11:35:00Z</time>
      </trkpt>
      <trkpt lat="42.76959" lon="-0.01414">
        <ele>1733.85</ele>
        <time>2018-03-21T11:35:06Z</time>
      </trkpt>
      <trkpt lat="42.76978" lon="-0.01413">
        <ele>1730.56</ele>
        <time>2018-03-21T11:35:13Z</time>
      </trkpt>
      <trkpt lat="42.76983" lon="-0.01386">
        <ele>1723.89</ele>
        <time>2018-03-21T11:35:20Z</time>
      </trkpt>
      <trkpt lat="42.76982" lon="-0.01359">
        <ele>1720.85</ele>
        <time>2018-03-21T11:35:28Z</time>
      </trkpt>
      <trkpt lat="42.76995" lon="-0.01337">
        <ele>1715.93</ele>
        <time>2018-03-21T11:35:33Z</time>
      </trkpt>
      <trkpt lat="42.76997" lon="-0.01309">
        <ele>1712.86</ele>
        <time>2018-03-21T11:35:37Z</time>
      </trkpt>
      <trkpt lat="42.77014" lon="-0.013">
        <ele>1704.86</ele>
        <time>2018-03-21T11:35:49Z</time>
      </trkpt>
      <trkpt lat="42.77019" lon="-0.01276">
        <ele>1702.56</ele>
        <time>2018-03-21T11:35:54Z</time>
      </trkpt>
      <trkpt lat="42.77026" lon="-0.01252">
        <ele>1697.62</ele>
        <time>2018-03-21T11:36:06Z</time>
      </trkpt>
      <trkpt lat="42.7704" lon="-0.01236">
        <ele>1693.85</ele>
        <time>2018-03-21T11:36:14Z</time>
      </trkpt>
      <trkpt lat="42.77053" lon="-0.01216">
        <ele>1688.55</ele>
        <time>2018-03-21T11:36:37Z</time>
      </trkpt>
      <trkpt lat="42.77052" lon="-0.01189">
        <ele>1685.83</ele>
        <time>2018-03-21T11:36:44Z</time>
      </trkpt>
      <trkpt lat="42.77049" lon="-0.01161">
        <ele>1682.86</ele>
        <time>2018-03-21T11:36:49Z</time>
      </trkpt>
      <trkpt lat="42.77034" lon="-0.01141">
        <ele>1679.92</ele>
        <time>2018-03-21T11:36:54Z</time>
      </trkpt>
      <trkpt lat="42.7702" lon="-0.01118">
        <ele>1675.04</ele>
        <time>2018-03-21T11:36:58Z</time>
      </trkpt>
      <trkpt lat="42.77014" lon="-0.0109">
        <ele>1673.55</ele>
        <time>2018-03-21T11:37:02Z</time>
      </trkpt>
      <trkpt lat="42.77008" lon="-0.01062">
        <ele>1670.64</ele>
        <time>2018-03-21T11:37:08Z</time>
      </trkpt>
      <trkpt lat="42.77026" lon="-0.01055">
        <ele>1664.25</ele>
        <time>2018-03-21T11:37:14Z</time>
      </trkpt>
      <trkpt lat="42.77048" lon="-0.01053">
        <ele>1660.86</ele>
        <time>2018-03-21T11:37:19Z</time>
      </trkpt>
      <trkpt lat="42.77069" lon="-0.0105">
        <ele>1655.68</ele>
        <time>2018-03-21T11:37:24Z</time>
      </trkpt>
      <trkpt lat="42.77074" lon="-0.01021">
        <ele>1646.94</ele>
        <time>2018-03-21T11:37:40Z</time>
      </trkpt>
      <trkpt lat="42.77079" lon="-0.00992">
        <ele>1645.83</ele>
        <time>2018-03-21T11:37:44Z</time>
      </trkpt>
      <trkpt lat="42.77086" lon="-0.00965">
        <ele>1643.58</ele>
        <time>2018-03-21T11:37:49Z</time>
      </trkpt>
      <trkpt lat="42.77091" lon="-0.00939">
        <ele>1641.64</ele>
        <time>2018-03-21T11:37:54Z</time>
      </trkpt>
      <trkpt lat="42.77101" lon="-0.00917">
        <ele>1636.86</ele>
        <time>2018-03-21T11:38:00Z</time>
      </trkpt>
      <trkpt lat="42.77108" lon="-0.00892">
        <ele>1633.65</ele>
        <time>2018-03-21T11:38:05Z</time>
      </trkpt>
      <trkpt lat="42.771" lon="-0.0087">
        <ele>1626.61</ele>
        <time>2018-03-21T11:38:24Z</time>
      </trkpt>
      <trkpt lat="42.77081" lon="-0.00851">
        <ele>1620.98</ele>
        <time>2018-03-21T11:38:29Z</time>
      </trkpt>
      <trkpt lat="42.77082" lon="-0.00825">
        <ele>1620.52</ele>
        <time>2018-03-21T11:38:38Z</time>
      </trkpt>
      <trkpt lat="42.77102" lon="-0.00818">
        <ele>1615.15</ele>
        <time>2018-03-21T11:38:48Z</time>
      </trkpt>
      <trkpt lat="42.7712" lon="-0.00821">
        <ele>1608.82</ele>
        <time>2018-03-21T11:39:00Z</time>
      </trkpt>
      <trkpt lat="42.77131" lon="-0.00798">
        <ele>1604.85</ele>
        <time>2018-03-21T11:39:05Z</time>
      </trkpt>
      <trkpt lat="42.7714" lon="-0.00776">
        <ele>1601.83</ele>
        <time>2018-03-21T11:39:11Z</time>
      </trkpt>
      <trkpt lat="42.77148" lon="-0.00801">
        <ele>1596.76</ele>
        <time>2018-03-21T11:39:16Z</time>
      </trkpt>
      <trkpt lat="42.77166" lon="-0.00787">
        <ele>1591.75</ele>
        <time>2018-03-21T11:39:20Z</time>
      </trkpt>
      <trkpt lat="42.77189" lon="-0.00791">
        <ele>1588.01</ele>
        <time>2018-03-21T11:39:24Z</time>
      </trkpt>
      <trkpt lat="42.7721" lon="-0.00796">
        <ele>1580.26</ele>
        <time>2018-03-21T11:39:29Z</time>
      </trkpt>
      <trkpt lat="42.77232" lon="-0.00794">
        <ele>1575.95</ele>
        <time>2018-03-21T11:39:33Z</time>
      </trkpt>
      <trkpt lat="42.77249" lon="-0.0078">
        <ele>1571.95</ele>
        <time>2018-03-21T11:39:37Z</time>
      </trkpt>
      <trkpt lat="42.77263" lon="-0.00764">
        <ele>1568.65</ele>
        <time>2018-03-21T11:39:41Z</time>
      </trkpt>
      <trkpt lat="42.77281" lon="-0.00751">
        <ele>1565.65</ele>
        <time>2018-03-21T11:39:45Z</time>
      </trkpt>
      <trkpt lat="42.77302" lon="-0.00751">
        <ele>1560.95</ele>
        <time>2018-03-21T11:39:51Z</time>
      </trkpt>
      <trkpt lat="42.77317" lon="-0.00738">
        <ele>1556.95</ele>
        <time>2018-03-21T11:39:55Z</time>
      </trkpt>
      <trkpt lat="42.77333" lon="-0.00718">
        <ele>1554.52</ele>
        <time>2018-03-21T11:40:05Z</time>
      </trkpt>
      <trkpt lat="42.77348" lon="-0.00699">
        <ele>1551.92</ele>
        <time>2018-03-21T11:40:09Z</time>
      </trkpt>
      <trkpt lat="42.77358" lon="-0.00721">
        <ele>1546.97</ele>
        <time>2018-03-21T11:40:14Z</time>
      </trkpt>
      <trkpt lat="42.77376" lon="-0.00723">
        <ele>1537.61</ele>
        <time>2018-03-21T11:42:05Z</time>
      </trkpt>
      <trkpt lat="42.77389" lon="-0.00704">
        <ele>1536.53</ele>
        <time>2018-03-21T11:42:15Z</time>
      </trkpt>
      <trkpt lat="42.77399" lon="-0.00683">
        <ele>1536.52</ele>
        <time>2018-03-21T11:42:30Z</time>
      </trkpt>
      <trkpt lat="42.77413" lon="-0.00665">
        <ele>1534.52</ele>
        <time>2018-03-21T11:43:18Z</time>
      </trkpt>
      <trkpt lat="42.77426" lon="-0.00647">
        <ele>1535.52</ele>
        <time>2018-03-21T11:43:33Z</time>
      </trkpt>
      <trkpt lat="42.77431" lon="-0.00621">
        <ele>1536.52</ele>
        <time>2018-03-21T11:43:46Z</time>
      </trkpt>
      <trkpt lat="42.77437" lon="-0.00596">
        <ele>1536.52</ele>
        <time>2018-03-21T11:43:58Z</time>
      </trkpt>
      <trkpt lat="42.77448" lon="-0.00575">
        <ele>1536.52</ele>
        <time>2018-03-21T11:44:08Z</time>
      </trkpt>
      <trkpt lat="42.77456" lon="-0.00552">
        <ele>1537.43</ele>
        <time>2018-03-21T11:44:19Z</time>
      </trkpt>
      <trkpt lat="42.77455" lon="-0.00525">
        <ele>1536.52</ele>
        <time>2018-03-21T11:44:29Z</time>
      </trkpt>
      <trkpt lat="42.77456" lon="-0.00498">
        <ele>1536.52</ele>
        <time>2018-03-21T11:44:43Z</time>
      </trkpt>
      <trkpt lat="42.77457" lon="-0.00473">
        <ele>1536.53</ele>
        <time>2018-03-21T11:44:57Z</time>
      </trkpt>
      <trkpt lat="42.77456" lon="-0.00449">
        <ele>1537.55</ele>
        <time>2018-03-21T11:45:12Z</time>
      </trkpt>
      <trkpt lat="42.77459" lon="-0.00424">
        <ele>1536.61</ele>
        <time>2018-03-21T11:45:29Z</time>
      </trkpt>
      <trkpt lat="42.77464" lon="-0.00399">
        <ele>1536.52</ele>
        <time>2018-03-21T11:45:49Z</time>
      </trkpt>
      <trkpt lat="42.77467" lon="-0.00374">
        <ele>1535.82</ele>
        <time>2018-03-21T11:46:07Z</time>
      </trkpt>
      <trkpt lat="42.77474" lon="-0.00351">
        <ele>1536.52</ele>
        <time>2018-03-21T11:46:28Z</time>
      </trkpt>
      <trkpt lat="42.77479" lon="-0.00327">
        <ele>1534.22</ele>
        <time>2018-03-21T11:46:56Z</time>
      </trkpt>
      <trkpt lat="42.77488" lon="-0.00304">
        <ele>1536.51</ele>
        <time>2018-03-21T11:47:17Z</time>
      </trkpt>
      <trkpt lat="42.77496" lon="-0.00281">
        <ele>1535.52</ele>
        <time>2018-03-21T11:47:45Z</time>
      </trkpt>
      <trkpt lat="42.77502" lon="-0.00257">
        <ele>1535.52</ele>
        <time>2018-03-21T11:48:12Z</time>
      </trkpt>
      <trkpt lat="42.77507" lon="-0.00234">
        <ele>1534.52</ele>
        <time>2018-03-21T11:48:56Z</time>
      </trkpt>
      <trkpt lat="42.77511" lon="-0.00209">
        <ele>1533.52</ele>
        <time>2018-03-21T11:49:42Z</time>
      </trkpt>
      <trkpt lat="42.77521" lon="-0.00187">
        <ele>1531.53</ele>
        <time>2018-03-21T11:50:06Z</time>
      </trkpt>
      <trkpt lat="42.77539" lon="-0.0018">
        <ele>1530.43</ele>
        <time>2018-03-21T11:50:18Z</time>
      </trkpt>
      <trkpt lat="42.77557" lon="-0.00173">
        <ele>1528.61</ele>
        <time>2018-03-21T11:50:27Z</time>
      </trkpt>
      <trkpt lat="42.77573" lon="-0.0016">
        <ele>1528.45</ele>
        <time>2018-03-21T11:50:41Z</time>
      </trkpt>
      <trkpt lat="42.77588" lon="-0.00145">
        <ele>1525.83</ele>
        <time>2018-03-21T11:50:59Z</time>
      </trkpt>
      <trkpt lat="42.77603" lon="-0.00132">
        <ele>1525.52</ele>
        <time>2018-03-21T11:51:17Z</time>
      </trkpt>
      <trkpt lat="42.77613" lon="-0.00111">
        <ele>1527.52</ele>
        <time>2018-03-21T11:51:38Z</time>
      </trkpt>
      <trkpt lat="42.77622" lon="-0.00089">
        <ele>1530.5</ele>
        <time>2018-03-21T11:52:03Z</time>
      </trkpt>
      <trkpt lat="42.7763" lon="-0.00065">
        <ele>1529.83</ele>
        <time>2018-03-21T11:52:30Z</time>
      </trkpt>
      <trkpt lat="42.77635" lon="-0.00041">
        <ele>1532.52</ele>
        <time>2018-03-21T11:52:49Z</time>
      </trkpt>
      <trkpt lat="42.77639" lon="-0.00017">
        <ele>1533.61</ele>
        <time>2018-03-21T11:53:17Z</time>
      </trkpt>
      <trkpt lat="42.77637" lon="8.0E-5">
        <ele>1532.25</ele>
        <time>2018-03-21T11:53:40Z</time>
      </trkpt>
      <trkpt lat="42.77636" lon="0.00034">
        <ele>1532.31</ele>
        <time>2018-03-21T11:53:58Z</time>
      </trkpt>
      <trkpt lat="42.77641" lon="0.0006">
        <ele>1530.52</ele>
        <time>2018-03-21T11:54:12Z</time>
      </trkpt>
      <trkpt lat="42.77651" lon="0.00082">
        <ele>1530.52</ele>
        <time>2018-03-21T11:54:21Z</time>
      </trkpt>
      <trkpt lat="42.77666" lon="0.00099">
        <ele>1528.82</ele>
        <time>2018-03-21T11:54:28Z</time>
      </trkpt>
      <trkpt lat="42.77683" lon="0.00112">
        <ele>1523.86</ele>
        <time>2018-03-21T11:54:35Z</time>
      </trkpt>
      <trkpt lat="42.77698" lon="0.00127">
        <ele>1521.61</ele>
        <time>2018-03-21T11:54:42Z</time>
      </trkpt>
      <trkpt lat="42.7771" lon="0.00146">
        <ele>1522.22</ele>
        <time>2018-03-21T11:54:51Z</time>
      </trkpt>
      <trkpt lat="42.77717" lon="0.00169">
        <ele>1522.52</ele>
        <time>2018-03-21T11:55:00Z</time>
      </trkpt>
      <trkpt lat="42.77721" lon="0.00193">
        <ele>1521.52</ele>
        <time>2018-03-21T11:55:11Z</time>
      </trkpt>
      <trkpt lat="42.77729" lon="0.00218">
        <ele>1521.53</ele>
        <time>2018-03-21T11:55:20Z</time>
      </trkpt>
      <trkpt lat="42.77738" lon="0.00241">
        <ele>1520.85</ele>
        <time>2018-03-21T11:55:26Z</time>
      </trkpt>
      <trkpt lat="42.77748" lon="0.00262">
        <ele>1516.92</ele>
        <time>2018-03-21T11:55:31Z</time>
      </trkpt>
      <trkpt lat="42.77763" lon="0.00281">
        <ele>1514.64</ele>
        <time>2018-03-21T11:55:36Z</time>
      </trkpt>
      <trkpt lat="42.77777" lon="0.00301">
        <ele>1511.86</ele>
        <time>2018-03-21T11:55:40Z</time>
      </trkpt>
      <trkpt lat="42.77791" lon="0.00321">
        <ele>1508.92</ele>
        <time>2018-03-21T11:55:45Z</time>
      </trkpt>
      <trkpt lat="42.77806" lon="0.0034">
        <ele>1504.85</ele>
        <time>2018-03-21T11:55:51Z</time>
      </trkpt>
      <trkpt lat="42.77818" lon="0.00359">
        <ele>1503.55</ele>
        <time>2018-03-21T11:55:55Z</time>
      </trkpt>
      <trkpt lat="42.77835" lon="0.00375">
        <ele>1500.92</ele>
        <time>2018-03-21T11:56:00Z</time>
      </trkpt>
      <trkpt lat="42.77855" lon="0.00383">
        <ele>1497.91</ele>
        <time>2018-03-21T11:56:06Z</time>
      </trkpt>
      <trkpt lat="42.77874" lon="0.00398">
        <ele>1493.92</ele>
        <time>2018-03-21T11:56:11Z</time>
      </trkpt>
      <trkpt lat="42.77892" lon="0.0041">
        <ele>1492.53</ele>
        <time>2018-03-21T11:56:16Z</time>
      </trkpt>
      <trkpt lat="42.77909" lon="0.00419">
        <ele>1489.53</ele>
        <time>2018-03-21T11:56:26Z</time>
      </trkpt>
    </trkseg>
  </trk>
</gpx>